createdAt,value
2019-05-22T00:04:29.488Z,8.75
2019-05-22T00:09:42.375Z,7.80
2019-05-22T00:14:50.856Z,8.00
2019-05-22T00:20:05.359Z,9.00
2019-05-22T00:25:52.087Z,8.40
2019-05-22T00:31:20.022Z,9.00
2019-05-22T00:36:47.399Z,8.60
2019-05-22T00:42:10.021Z,8.00
2019-05-22T00:47:15.575Z,7.00
2019-05-22T00:52:42.141Z,8.20
2019-05-22T00:58:10.151Z,9.00
2019-05-22T01:03:19.151Z,7.75
2019-05-22T01:08:28.294Z,6.60
2019-05-22T01:13:34.786Z,7.25
2019-05-22T01:18:42.443Z,7.75
2019-05-22T01:23:48.739Z,7.20
2019-05-22T01:28:53.692Z,7.50
2019-05-22T01:34:06.084Z,6.60
2019-05-22T01:39:32.945Z,5.75
2019-05-22T01:44:38.242Z,5.00
2019-05-22T01:49:51.736Z,6.60
2019-05-22T01:54:57.987Z,7.40
2019-05-22T02:00:06.230Z,7.75
2019-05-22T02:05:12.936Z,6.60
2019-05-22T02:10:24.962Z,6.80
2019-05-22T02:15:30.809Z,8.00
2019-05-22T02:20:36.686Z,8.00
2019-05-22T02:25:42.222Z,6.50
2019-05-22T02:30:48.774Z,8.50
2019-05-22T02:35:55.906Z,7.00
2019-05-22T02:41:02.481Z,7.50
2019-05-22T02:46:08.401Z,6.25
2019-05-22T02:51:13.475Z,6.75
2019-05-22T02:56:18.236Z,7.00
2019-05-22T03:01:24.470Z,8.50
2019-05-22T03:06:29.368Z,7.60
2019-05-22T03:11:39.897Z,6.00
2019-05-22T03:16:56.529Z,7.40
2019-05-22T03:22:04.122Z,9.50
2019-05-22T03:27:11.424Z,7.60
2019-05-22T03:32:17.222Z,8.20
2019-05-22T03:37:22.918Z,8.50
2019-05-22T03:42:31.251Z,7.25
2019-05-22T03:47:54.957Z,9.75
2019-05-22T03:53:19.821Z,12.00
2019-05-22T03:58:44.111Z,13.40
2019-05-22T04:04:15.005Z,11.25
2019-05-22T04:09:49.949Z,13.40
2019-05-22T04:21:19.729Z,12.75
2019-05-22T04:33:15.502Z,13.80
2019-05-22T04:38:28.940Z,13.80
2019-05-22T04:43:36.572Z,14.25
2019-05-22T04:48:48.895Z,18.60
2019-05-22T04:59:43.347Z,16.00
2019-05-22T05:11:02.319Z,18.50
2019-05-22T05:16:57.605Z,18.00
2019-05-22T05:28:37.046Z,19.00
2019-05-22T05:34:05.238Z,13.25
2019-05-22T05:39:38.001Z,16.80
2019-05-22T05:44:51.730Z,15.00
2019-05-22T05:50:08.714Z,16.20
2019-05-22T05:55:19.670Z,14.20
2019-05-22T06:00:32.442Z,18.40
2019-05-22T06:06:01.833Z,17.00
2019-05-22T06:11:48.979Z,16.50
2019-05-22T06:17:48.018Z,17.00
2019-05-22T06:23:48.475Z,15.75
2019-05-22T06:28:54.282Z,18.80
2019-05-22T06:33:58.661Z,18.00
2019-05-22T06:39:17.387Z,14.40
2019-05-22T06:44:32.775Z,17.00
2019-05-22T06:49:42.687Z,19.40
2019-05-22T06:54:47.494Z,21.40
2019-05-22T07:00:11.261Z,16.75
2019-05-22T07:04:58.883Z,17.50
2019-05-22T07:10:03.182Z,17.00
2019-05-22T07:15:44.269Z,18.20
2019-05-22T07:20:49.800Z,18.80
2019-05-22T07:25:54.885Z,17.40
2019-05-22T07:30:59.356Z,18.75
2019-05-22T07:36:16.059Z,18.60
2019-05-22T07:41:10.241Z,22.75
2019-05-22T07:46:14.559Z,23.20
2019-05-22T07:51:20.029Z,21.00
2019-05-22T07:56:24.760Z,16.80
2019-05-22T08:01:30.215Z,16.50
2019-05-22T08:06:35.115Z,16.00
2019-05-22T08:11:39.717Z,19.75
2019-05-22T08:16:44.443Z,18.75
2019-05-22T08:21:48.528Z,17.80
2019-05-22T08:26:54.803Z,20.00
2019-05-22T08:32:00.466Z,17.20
2019-05-22T08:37:07.224Z,18.00
2019-05-22T08:42:15.313Z,17.20
2019-05-22T08:47:20.903Z,18.00
2019-05-22T08:52:25.493Z,19.00
2019-05-22T08:57:30.153Z,18.00
2019-05-22T09:02:34.905Z,17.25
2019-05-22T09:07:41.250Z,16.00
2019-05-22T09:12:45.405Z,18.00
2019-05-22T09:17:49.505Z,19.40
2019-05-22T09:22:53.620Z,18.00
2019-05-22T09:27:58.525Z,16.80
2019-05-22T09:33:03.588Z,19.00
2019-05-22T09:38:07.695Z,15.25
2019-05-22T09:43:11.891Z,14.80
2019-05-22T09:48:16.196Z,12.40
2019-05-22T09:53:20.680Z,15.00
2019-05-22T09:58:25.228Z,13.50
2019-05-22T10:03:29.239Z,12.75
2019-05-22T10:08:33.713Z,12.60
2019-05-22T10:13:38.326Z,11.75
2019-05-22T10:18:42.470Z,13.60
2019-05-22T10:23:46.660Z,14.40
2019-05-22T10:28:50.793Z,11.50
2019-05-22T10:33:54.985Z,13.00
2019-05-22T10:38:59.088Z,14.25
2019-05-22T10:44:04.143Z,15.00
2019-05-22T10:49:08.620Z,13.50
2019-05-22T10:54:12.991Z,11.40
2019-05-22T10:59:17.269Z,14.20
2019-05-22T11:04:23.667Z,10.80
2019-05-22T11:09:28.191Z,12.00
2019-05-22T11:14:33.461Z,15.00
2019-05-22T11:19:37.581Z,11.60
2019-05-22T11:24:41.723Z,13.60
2019-05-22T11:29:46.321Z,12.80
2019-05-22T11:34:50.858Z,12.25
2019-05-22T11:39:55.218Z,12.25
2019-05-22T11:44:59.487Z,12.50
2019-05-22T11:50:03.736Z,10.60
2019-05-22T11:55:08.271Z,11.20
2019-05-22T12:00:16.071Z,11.20
2019-05-22T12:05:22.042Z,10.00
2019-05-22T12:10:26.572Z,9.75
2019-05-22T12:15:31.870Z,11.25
2019-05-22T12:20:36.393Z,10.50
2019-05-22T12:25:40.789Z,13.00
2019-05-22T12:30:45.675Z,9.75
2019-05-22T12:35:51.571Z,10.80
2019-05-22T12:40:55.979Z,11.25
2019-05-22T12:46:00.231Z,12.00
2019-05-22T12:51:05.094Z,12.25
2019-05-22T12:56:09.698Z,9.00
2019-05-22T13:01:14.475Z,11.25
2019-05-22T13:06:19.715Z,10.00
2019-05-22T13:11:25.187Z,12.50
2019-05-22T13:16:32.949Z,10.00
2019-05-22T13:21:39.390Z,12.00
2019-05-22T13:26:44.836Z,11.20
2019-05-22T13:31:52.544Z,10.50
2019-05-22T13:36:57.760Z,11.20
2019-05-22T13:42:02.144Z,11.75
2019-05-22T13:47:07.574Z,11.00
2019-05-22T13:52:12.361Z,14.00
2019-05-22T13:57:16.624Z,12.60
2019-05-22T14:02:20.710Z,14.25
2019-05-22T14:07:24.846Z,13.50
2019-05-22T14:12:29.760Z,14.75
2019-05-22T14:17:33.855Z,13.00
2019-05-22T14:22:38.366Z,12.00
2019-05-22T14:27:42.592Z,14.00
2019-05-22T14:32:46.784Z,12.60
2019-05-22T14:37:51.374Z,13.75
2019-05-22T14:42:55.854Z,14.20
2019-05-22T14:47:59.999Z,12.40
2019-05-22T14:53:04.615Z,14.75
2019-05-22T14:58:11.010Z,15.50
2019-05-22T15:03:16.046Z,15.80
2019-05-22T15:08:21.539Z,15.00
2019-05-22T15:13:26.278Z,16.00
2019-05-22T15:18:30.606Z,15.25
2019-05-22T15:23:34.988Z,15.00
2019-05-22T15:28:40.296Z,15.60
2019-05-22T15:33:45.209Z,13.25
2019-05-22T15:38:49.893Z,17.00
2019-05-22T15:43:54.755Z,17.25
2019-05-22T15:48:59.548Z,17.25
2019-05-22T15:54:06.915Z,13.20
2019-05-22T15:59:13.843Z,15.00
2019-05-22T16:04:19.981Z,14.75
2019-05-22T16:09:27.356Z,13.25
2019-05-22T16:14:33.391Z,14.00
2019-05-22T16:19:38.067Z,13.40
2019-05-22T16:24:42.770Z,11.75
2019-05-22T16:29:47.283Z,10.00
2019-05-22T16:34:53.243Z,12.50
2019-05-22T16:39:57.634Z,13.00
2019-05-22T16:45:03.292Z,12.25
2019-05-22T16:50:09.857Z,13.40
2019-05-22T16:55:14.493Z,15.40
2019-05-22T17:00:19.755Z,13.00
2019-05-22T17:05:24.627Z,13.20
2019-05-22T17:10:29.371Z,12.00
2019-05-22T17:15:35.383Z,13.20
2019-05-22T17:20:40.617Z,10.25
2019-05-22T17:25:44.774Z,12.00
2019-05-22T17:30:50.811Z,11.50
2019-05-22T17:35:56.783Z,11.00
2019-05-22T17:41:02.358Z,12.75
2019-05-22T17:46:06.859Z,11.75
2019-05-22T17:51:11.625Z,11.50
2019-05-22T17:56:15.957Z,11.60
2019-05-22T18:01:22.971Z,12.25
2019-05-22T18:06:27.555Z,9.50
2019-05-22T18:11:32.035Z,9.60
2019-05-22T18:16:36.133Z,9.00
2019-05-22T18:21:41.274Z,10.75
2019-05-22T18:26:45.417Z,7.40
2019-05-22T18:31:49.536Z,11.40
2019-05-22T18:36:53.630Z,14.60
2019-05-22T18:41:57.733Z,10.20
2019-05-22T18:47:02.377Z,11.50
2019-05-22T18:52:07.187Z,10.80
2019-05-22T18:57:11.412Z,10.25
2019-05-22T19:02:15.674Z,9.50
2019-05-22T19:07:19.886Z,12.00
2019-05-22T19:12:24.758Z,8.00
2019-05-22T19:17:29.039Z,12.00
2019-05-22T19:22:33.152Z,12.00
2019-05-22T19:27:37.349Z,9.60
2019-05-22T19:32:41.456Z,8.75
2019-05-22T19:37:45.953Z,11.80
2019-05-22T19:42:50.621Z,11.80
2019-05-22T19:47:57.086Z,7.40
2019-05-22T19:53:17.427Z,8.20
2019-05-22T19:58:07.267Z,9.00
2019-05-22T20:03:11.586Z,8.80
2019-05-22T20:08:16.577Z,9.25
2019-05-22T20:13:23.054Z,9.20
2019-05-22T20:18:27.474Z,9.00
2019-05-22T20:23:35.813Z,7.40
2019-05-22T20:28:38.986Z,8.00
2019-05-22T20:33:44.146Z,8.80
2019-05-22T20:38:49.008Z,9.75
2019-05-22T20:43:54.059Z,8.50
2019-05-22T20:48:58.551Z,7.50
2019-05-22T20:54:04.531Z,8.60
2019-05-22T20:59:09.508Z,7.75
2019-05-22T21:04:16.310Z,6.60
2019-05-22T21:09:20.971Z,9.00
2019-05-22T21:14:25.733Z,5.50
2019-05-22T21:19:30.246Z,8.00
2019-05-22T21:24:36.423Z,7.40
2019-05-22T21:29:41.545Z,7.50
2019-05-22T21:34:46.413Z,6.00
2019-05-22T21:39:52.163Z,7.50
2019-05-22T21:44:57.195Z,6.80
2019-05-22T21:50:02.358Z,7.75
2019-05-22T21:55:10.259Z,7.00
2019-05-22T22:00:19.730Z,6.60
2019-05-22T22:05:24.990Z,7.75
2019-05-22T22:10:30.762Z,5.75
2019-05-22T22:15:40.959Z,4.75
2019-05-22T22:20:45.802Z,8.50
2019-05-22T22:25:51.392Z,6.00
2019-05-22T22:30:58.281Z,5.40
2019-05-22T22:36:03.557Z,5.80
2019-05-22T22:41:08.957Z,4.20
2019-05-22T22:46:27.808Z,5.80
2019-05-22T22:51:33.386Z,5.75
2019-05-22T22:56:39.574Z,6.25
2019-05-22T23:01:48.237Z,4.50
2019-05-22T23:06:54.111Z,6.80
2019-05-22T23:11:59.953Z,6.00
2019-05-22T23:17:05.743Z,4.40
2019-05-22T23:22:13.468Z,5.00
2019-05-22T23:27:20.011Z,4.40
2019-05-22T23:32:24.739Z,5.60
2019-05-22T23:37:29.574Z,4.40
2019-05-22T23:42:38.793Z,4.25
2019-05-22T23:48:09.142Z,5.50
2019-05-22T23:53:13.551Z,4.50
2019-05-22T23:58:20.375Z,5.00
